sensor_id;sensor_type;location;lat;lon;timestamp;temperature;humidity
8892;DHT22;4482;54.332;10.118;2022-12-01T00:02:24;5.10;99.90
8892;DHT22;4482;54.332;10.118;2022-12-01T00:04:53;5.00;99.90
8892;DHT22;4482;54.332;10.118;2022-12-01T00:07:20;5.10;99.90
8892;DHT22;4482;54.332;10.118;2022-12-01T00:09:47;5.00;99.90
8892;DHT22;4482;54.332;10.118;2022-12-01T00:12:34;5.10;99.90
8892;DHT22;4482;54.332;10.118;2022-12-01T00:15:08;5.00;99.90
8892;DHT22;4482;54.332;10.118;2022-12-01T00:17:35;5.00;99.90
8892;DHT22;4482;54.332;10.118;2022-12-01T00:20:02;5.10;99.90
8892;DHT22;4482;54.332;10.118;2022-12-01T00:22:30;5.10;99.90
8892;DHT22;4482;54.332;10.118;2022-12-01T00:24:57;5.10;99.90
8892;DHT22;4482;54.332;10.118;2022-12-01T00:27:24;5.10;99.90
8892;DHT22;4482;54.332;10.118;2022-12-01T00:29:52;5.10;99.90
8892;DHT22;4482;54.332;10.118;2022-12-01T00:32:19;5.00;99.90
8892;DHT22;4482;54.332;10.118;2022-12-01T00:34:46;5.00;99.90
8892;DHT22;4482;54.332;10.118;2022-12-01T00:37:12;5.00;99.90
8892;DHT22;4482;54.332;10.118;2022-12-01T00:39:39;5.00;99.90
8892;DHT22;4482;54.332;10.118;2022-12-01T00:42:06;5.00;99.90
8892;DHT22;4482;54.332;10.118;2022-12-01T00:44:33;5.00;99.90
8892;DHT22;4482;54.332;10.118;2022-12-01T00:47:01;5.00;99.90
8892;DHT22;4482;54.332;10.118;2022-12-01T00:49:28;5.00;99.90
8892;DHT22;4482;54.332;10.118;2022-12-01T00:51:55;5.00;99.90
8892;DHT22;4482;54.332;10.118;2022-12-01T00:54:22;5.10;99.90
8892;DHT22;4482;54.332;10.118;2022-12-01T00:56:49;5.10;99.90
8892;DHT22;4482;54.332;10.118;2022-12-01T00:59:16;5.10;99.90
8892;DHT22;4482;54.332;10.118;2022-12-01T01:01:43;5.10;99.90
8892;DHT22;4482;54.332;10.118;2022-12-01T01:04:11;5.10;99.90
8892;DHT22;4482;54.332;10.118;2022-12-01T01:06:38;5.00;99.90
8892;DHT22;4482;54.332;10.118;2022-12-01T01:09:04;5.10;99.90
8892;DHT22;4482;54.332;10.118;2022-12-01T01:11:31;5.10;99.90
8892;DHT22;4482;54.332;10.118;2022-12-01T01:13:58;5.00;99.90
8892;DHT22;4482;54.332;10.118;2022-12-01T01:16:25;5.00;99.90
8892;DHT22;4482;54.332;10.118;2022-12-01T01:18:52;5.00;99.90
8892;DHT22;4482;54.332;10.118;2022-12-01T01:21:25;5.00;99.90
8892;DHT22;4482;54.332;10.118;2022-12-01T01:23:53;5.00;99.90
8892;DHT22;4482;54.332;10.118;2022-12-01T01:26:23;5.00;99.90
8892;DHT22;4482;54.332;10.118;2022-12-01T01:28:50;5.00;99.90
8892;DHT22;4482;54.332;10.118;2022-12-01T01:31:19;5.00;99.90
8892;DHT22;4482;54.332;10.118;2022-12-01T01:33:47;5.00;99.90
8892;DHT22;4482;54.332;10.118;2022-12-01T01:36:14;5.10;99.90
8892;DHT22;4482;54.332;10.118;2022-12-01T01:38:42;5.00;99.90
8892;DHT22;4482;54.332;10.118;2022-12-01T01:41:10;5.00;99.90
8892;DHT22;4482;54.332;10.118;2022-12-01T01:43:40;5.10;99.90
8892;DHT22;4482;54.332;10.118;2022-12-01T01:46:07;5.10;99.90
8892;DHT22;4482;54.332;10.118;2022-12-01T01:48:36;5.10;99.90
8892;DHT22;4482;54.332;10.118;2022-12-01T01:51:04;5.10;99.90
8892;DHT22;4482;54.332;10.118;2022-12-01T01:53:31;5.30;99.90
8892;DHT22;4482;54.332;10.118;2022-12-01T01:56:00;5.40;99.90
8892;DHT22;4482;54.332;10.118;2022-12-01T01:58:28;5.30;99.90
8892;DHT22;4482;54.332;10.118;2022-12-01T02:00:56;5.20;99.90
8892;DHT22;4482;54.332;10.118;2022-12-01T02:03:23;5.20;99.90
8892;DHT22;4482;54.332;10.118;2022-12-01T02:05:51;5.10;99.90
8892;DHT22;4482;54.332;10.118;2022-12-01T02:08:18;5.10;99.90
8892;DHT22;4482;54.332;10.118;2022-12-01T02:10:57;5.00;99.90
8892;DHT22;4482;54.332;10.118;2022-12-01T02:13:33;5.00;99.90
8892;DHT22;4482;54.332;10.118;2022-12-01T02:16:08;5.10;99.90
8892;DHT22;4482;54.332;10.118;2022-12-01T02:18:45;5.10;99.90
8892;DHT22;4482;54.332;10.118;2022-12-01T02:21:28;5.10;99.90
8892;DHT22;4482;54.332;10.118;2022-12-01T02:27:06;5.10;99.90
8892;DHT22;4482;54.332;10.118;2022-12-01T02:30:01;5.10;99.90
8892;DHT22;4482;54.332;10.118;2022-12-01T02:32:48;5.10;99.90
8892;DHT22;4482;54.332;10.118;2022-12-01T02:35:23;5.10;99.90
8892;DHT22;4482;54.332;10.118;2022-12-01T02:38:00;5.10;99.90
8892;DHT22;4482;54.332;10.118;2022-12-01T02:40:32;5.10;99.90
8892;DHT22;4482;54.332;10.118;2022-12-01T02:43:05;5.10;99.90
8892;DHT22;4482;54.332;10.118;2022-12-01T02:45:39;5.10;99.90
8892;DHT22;4482;54.332;10.118;2022-12-01T02:48:13;5.10;99.90
8892;DHT22;4482;54.332;10.118;2022-12-01T02:50:42;5.10;99.90
8892;DHT22;4482;54.332;10.118;2022-12-01T02:53:12;5.10;99.90
8892;DHT22;4482;54.332;10.118;2022-12-01T02:55:48;5.10;99.90
8892;DHT22;4482;54.332;10.118;2022-12-01T02:58:15;5.10;99.90
8892;DHT22;4482;54.332;10.118;2022-12-01T03:00:53;5.10;99.90
8892;DHT22;4482;54.332;10.118;2022-12-01T03:03:41;5.10;99.90
8892;DHT22;4482;54.332;10.118;2022-12-01T03:06:14;5.10;99.90
8892;DHT22;4482;54.332;10.118;2022-12-01T03:08:49;5.10;99.90
8892;DHT22;4482;54.332;10.118;2022-12-01T03:11:21;5.20;99.90
8892;DHT22;4482;54.332;10.118;2022-12-01T03:14:03;5.10;99.90
8892;DHT22;4482;54.332;10.118;2022-12-01T03:16:37;5.20;99.90
8892;DHT22;4482;54.332;10.118;2022-12-01T03:19:12;5.20;99.90
8892;DHT22;4482;54.332;10.118;2022-12-01T03:21:43;5.10;99.90
8892;DHT22;4482;54.332;10.118;2022-12-01T03:24:14;5.20;99.90
8892;DHT22;4482;54.332;10.118;2022-12-01T03:26:46;5.20;99.90
8892;DHT22;4482;54.332;10.118;2022-12-01T03:29:16;5.20;99.90
8892;DHT22;4482;54.332;10.118;2022-12-01T03:31:49;5.10;99.90
8892;DHT22;4482;54.332;10.118;2022-12-01T03:34:22;5.10;99.90
8892;DHT22;4482;54.332;10.118;2022-12-01T03:36:53;5.10;99.90
8892;DHT22;4482;54.332;10.118;2022-12-01T03:39:22;5.10;99.90
8892;DHT22;4482;54.332;10.118;2022-12-01T03:41:54;5.10;99.90
8892;DHT22;4482;54.332;10.118;2022-12-01T03:44:26;5.10;99.90
8892;DHT22;4482;54.332;10.118;2022-12-01T03:46:59;5.10;99.90
8892;DHT22;4482;54.332;10.118;2022-12-01T03:49:29;5.10;99.90
8892;DHT22;4482;54.332;10.118;2022-12-01T03:52:05;5.10;99.90
8892;DHT22;4482;54.332;10.118;2022-12-01T03:54:41;5.10;99.90
8892;DHT22;4482;54.332;10.118;2022-12-01T03:57:14;5.10;99.90
8892;DHT22;4482;54.332;10.118;2022-12-01T03:59:43;5.10;99.90
8892;DHT22;4482;54.332;10.118;2022-12-01T04:02:11;5.10;99.90
8892;DHT22;4482;54.332;10.118;2022-12-01T04:04:39;5.10;99.90
8892;DHT22;4482;54.332;10.118;2022-12-01T04:07:06;5.10;99.90
8892;DHT22;4482;54.332;10.118;2022-12-01T04:09:38;5.10;99.90
8892;DHT22;4482;54.332;10.118;2022-12-01T04:12:05;5.10;99.90
8892;DHT22;4482;54.332;10.118;2022-12-01T04:14:49;5.10;99.90
8892;DHT22;4482;54.332;10.118;2022-12-01T04:17:16;5.10;99.90
8892;DHT22;4482;54.332;10.118;2022-12-01T04:19:44;5.10;99.90
8892;DHT22;4482;54.332;10.118;2022-12-01T04:22:11;5.10;99.90
8892;DHT22;4482;54.332;10.118;2022-12-01T04:24:38;5.10;99.90
8892;DHT22;4482;54.332;10.118;2022-12-01T04:27:05;5.10;99.90
8892;DHT22;4482;54.332;10.118;2022-12-01T04:29:32;5.10;99.90
8892;DHT22;4482;54.332;10.118;2022-12-01T04:31:59;5.10;99.90
8892;DHT22;4482;54.332;10.118;2022-12-01T04:34:25;5.10;99.90
8892;DHT22;4482;54.332;10.118;2022-12-01T04:36:54;5.10;99.90
8892;DHT22;4482;54.332;10.118;2022-12-01T04:39:21;5.10;99.90
8892;DHT22;4482;54.332;10.118;2022-12-01T04:41:48;5.10;99.90
8892;DHT22;4482;54.332;10.118;2022-12-01T04:44:15;5.10;99.90
8892;DHT22;4482;54.332;10.118;2022-12-01T04:46:42;5.10;99.90
8892;DHT22;4482;54.332;10.118;2022-12-01T04:49:09;5.10;99.90
8892;DHT22;4482;54.332;10.118;2022-12-01T04:51:35;5.10;99.90
8892;DHT22;4482;54.332;10.118;2022-12-01T04:54:04;5.10;99.90
8892;DHT22;4482;54.332;10.118;2022-12-01T04:56:31;5.10;99.90
8892;DHT22;4482;54.332;10.118;2022-12-01T04:58:58;5.10;99.90
8892;DHT22;4482;54.332;10.118;2022-12-01T05:01:25;5.10;99.90
8892;DHT22;4482;54.332;10.118;2022-12-01T05:03:52;5.10;99.90
8892;DHT22;4482;54.332;10.118;2022-12-01T05:06:20;5.10;99.90
8892;DHT22;4482;54.332;10.118;2022-12-01T05:08:48;5.10;99.90
8892;DHT22;4482;54.332;10.118;2022-12-01T05:11:17;5.10;99.90
8892;DHT22;4482;54.332;10.118;2022-12-01T05:13:45;5.20;99.90
8892;DHT22;4482;54.332;10.118;2022-12-01T05:16:14;5.10;99.90
8892;DHT22;4482;54.332;10.118;2022-12-01T05:18:41;5.10;99.90
8892;DHT22;4482;54.332;10.118;2022-12-01T05:21:10;5.10;99.90
8892;DHT22;4482;54.332;10.118;2022-12-01T05:23:36;5.10;99.90
8892;DHT22;4482;54.332;10.118;2022-12-01T05:26:05;5.10;99.90
8892;DHT22;4482;54.332;10.118;2022-12-01T05:28:34;5.10;99.90
8892;DHT22;4482;54.332;10.118;2022-12-01T05:31:02;5.10;99.90
8892;DHT22;4482;54.332;10.118;2022-12-01T05:33:29;5.10;99.90
8892;DHT22;4482;54.332;10.118;2022-12-01T05:35:56;5.10;99.90
8892;DHT22;4482;54.332;10.118;2022-12-01T05:38:23;5.10;99.90
8892;DHT22;4482;54.332;10.118;2022-12-01T05:40:50;5.10;99.90
8892;DHT22;4482;54.332;10.118;2022-12-01T05:43:18;5.10;99.90
8892;DHT22;4482;54.332;10.118;2022-12-01T05:45:46;5.10;99.90
8892;DHT22;4482;54.332;10.118;2022-12-01T05:48:15;5.10;99.90
8892;DHT22;4482;54.332;10.118;2022-12-01T05:50:42;5.10;99.90
8892;DHT22;4482;54.332;10.118;2022-12-01T05:53:10;5.10;99.90
8892;DHT22;4482;54.332;10.118;2022-12-01T05:55:38;5.10;99.90
8892;DHT22;4482;54.332;10.118;2022-12-01T05:58:05;5.20;99.90
8892;DHT22;4482;54.332;10.118;2022-12-01T06:00:32;5.20;99.90
8892;DHT22;4482;54.332;10.118;2022-12-01T06:03:01;5.20;99.90
8892;DHT22;4482;54.332;10.118;2022-12-01T06:05:28;5.20;99.90
8892;DHT22;4482;54.332;10.118;2022-12-01T06:07:54;5.10;99.90
8892;DHT22;4482;54.332;10.118;2022-12-01T06:10:21;5.10;99.90
8892;DHT22;4482;54.332;10.118;2022-12-01T06:12:48;5.10;99.90
8892;DHT22;4482;54.332;10.118;2022-12-01T06:15:15;5.10;99.90
8892;DHT22;4482;54.332;10.118;2022-12-01T06:17:42;5.10;99.90
8892;DHT22;4482;54.332;10.118;2022-12-01T06:20:11;5.10;99.90
8892;DHT22;4482;54.332;10.118;2022-12-01T06:22:38;5.10;99.90
8892;DHT22;4482;54.332;10.118;2022-12-01T06:25:06;5.10;99.90
8892;DHT22;4482;54.332;10.118;2022-12-01T06:27:33;5.10;99.90
8892;DHT22;4482;54.332;10.118;2022-12-01T06:30:00;5.10;99.90
8892;DHT22;4482;54.332;10.118;2022-12-01T06:32:26;5.10;99.90
8892;DHT22;4482;54.332;10.118;2022-12-01T06:34:53;5.20;99.90
8892;DHT22;4482;54.332;10.118;2022-12-01T06:37:21;5.20;99.90
8892;DHT22;4482;54.332;10.118;2022-12-01T06:39:48;5.20;99.90
8892;DHT22;4482;54.332;10.118;2022-12-01T06:42:15;5.20;99.90
8892;DHT22;4482;54.332;10.118;2022-12-01T06:44:42;5.10;99.90
8892;DHT22;4482;54.332;10.118;2022-12-01T06:47:09;5.10;99.90
8892;DHT22;4482;54.332;10.118;2022-12-01T06:49:35;5.10;99.90
8892;DHT22;4482;54.332;10.118;2022-12-01T06:52:02;5.10;99.90
8892;DHT22;4482;54.332;10.118;2022-12-01T06:54:31;5.10;99.90
8892;DHT22;4482;54.332;10.118;2022-12-01T06:56:58;5.10;99.90
8892;DHT22;4482;54.332;10.118;2022-12-01T06:59:25;5.10;99.90
8892;DHT22;4482;54.332;10.118;2022-12-01T07:01:52;5.10;99.90
8892;DHT22;4482;54.332;10.118;2022-12-01T07:04:19;5.10;99.90
8892;DHT22;4482;54.332;10.118;2022-12-01T07:06:45;5.10;99.90
8892;DHT22;4482;54.332;10.118;2022-12-01T07:09:12;5.10;99.90
8892;DHT22;4482;54.332;10.118;2022-12-01T07:11:40;5.10;99.90
8892;DHT22;4482;54.332;10.118;2022-12-01T07:14:15;5.10;99.90
8892;DHT22;4482;54.332;10.118;2022-12-01T07:16:42;5.10;99.90
8892;DHT22;4482;54.332;10.118;2022-12-01T07:19:09;5.10;99.90
8892;DHT22;4482;54.332;10.118;2022-12-01T07:21:36;5.10;99.90
8892;DHT22;4482;54.332;10.118;2022-12-01T07:24:03;5.10;99.90
8892;DHT22;4482;54.332;10.118;2022-12-01T07:26:30;5.10;99.90
8892;DHT22;4482;54.332;10.118;2022-12-01T07:28:58;5.10;99.90
8892;DHT22;4482;54.332;10.118;2022-12-01T07:31:25;5.10;99.90
8892;DHT22;4482;54.332;10.118;2022-12-01T07:33:52;5.00;99.90
8892;DHT22;4482;54.332;10.118;2022-12-01T07:36:19;5.00;99.90
8892;DHT22;4482;54.332;10.118;2022-12-01T07:38:46;5.00;99.90
8892;DHT22;4482;54.332;10.118;2022-12-01T07:41:14;5.00;99.90
8892;DHT22;4482;54.332;10.118;2022-12-01T07:43:44;5.00;99.90
8892;DHT22;4482;54.332;10.118;2022-12-01T07:46:13;5.00;99.90
8892;DHT22;4482;54.332;10.118;2022-12-01T07:48:41;5.00;99.90
8892;DHT22;4482;54.332;10.118;2022-12-01T07:51:09;5.00;99.90
8892;DHT22;4482;54.332;10.118;2022-12-01T07:53:36;5.00;99.90
8892;DHT22;4482;54.332;10.118;2022-12-01T07:56:04;5.10;99.90
8892;DHT22;4482;54.332;10.118;2022-12-01T07:58:31;5.10;99.90
8892;DHT22;4482;54.332;10.118;2022-12-01T08:01:04;5.00;99.90
8892;DHT22;4482;54.332;10.118;2022-12-01T08:03:33;5.10;99.90
8892;DHT22;4482;54.332;10.118;2022-12-01T08:06:01;5.10;99.90
8892;DHT22;4482;54.332;10.118;2022-12-01T08:08:29;5.10;99.90
8892;DHT22;4482;54.332;10.118;2022-12-01T08:10:58;5.10;99.90
8892;DHT22;4482;54.332;10.118;2022-12-01T08:13:26;5.10;99.90
8892;DHT22;4482;54.332;10.118;2022-12-01T08:15:53;5.10;99.90
8892;DHT22;4482;54.332;10.118;2022-12-01T08:18:20;5.10;99.90
8892;DHT22;4482;54.332;10.118;2022-12-01T08:20:48;5.10;99.90
8892;DHT22;4482;54.332;10.118;2022-12-01T08:23:16;5.10;99.90
8892;DHT22;4482;54.332;10.118;2022-12-01T08:25:42;5.00;99.90
8892;DHT22;4482;54.332;10.118;2022-12-01T08:28:09;5.10;99.90
8892;DHT22;4482;54.332;10.118;2022-12-01T08:30:36;5.00;99.90
8892;DHT22;4482;54.332;10.118;2022-12-01T08:33:03;5.10;99.90
8892;DHT22;4482;54.332;10.118;2022-12-01T08:35:30;5.10;99.90
8892;DHT22;4482;54.332;10.118;2022-12-01T08:37:59;5.10;99.90
8892;DHT22;4482;54.332;10.118;2022-12-01T08:40:26;5.10;99.90
8892;DHT22;4482;54.332;10.118;2022-12-01T08:42:53;5.10;99.90
8892;DHT22;4482;54.332;10.118;2022-12-01T08:45:20;5.10;99.90
8892;DHT22;4482;54.332;10.118;2022-12-01T08:47:47;5.10;99.90
8892;DHT22;4482;54.332;10.118;2022-12-01T08:50:14;5.10;99.90
8892;DHT22;4482;54.332;10.118;2022-12-01T08:52:41;5.10;99.90
8892;DHT22;4482;54.332;10.118;2022-12-01T08:55:11;5.10;99.90
8892;DHT22;4482;54.332;10.118;2022-12-01T08:57:38;5.20;99.90
8892;DHT22;4482;54.332;10.118;2022-12-01T09:00:06;5.20;99.90
8892;DHT22;4482;54.332;10.118;2022-12-01T09:02:33;5.20;99.90
8892;DHT22;4482;54.332;10.118;2022-12-01T09:05:00;5.20;99.90
8892;DHT22;4482;54.332;10.118;2022-12-01T09:07:27;5.30;99.90
8892;DHT22;4482;54.332;10.118;2022-12-01T09:09:54;5.30;99.90
8892;DHT22;4482;54.332;10.118;2022-12-01T09:12:22;5.30;99.90
8892;DHT22;4482;54.332;10.118;2022-12-01T09:14:49;5.30;99.90
8892;DHT22;4482;54.332;10.118;2022-12-01T09:17:16;5.30;99.90
8892;DHT22;4482;54.332;10.118;2022-12-01T09:19:43;5.30;99.90
8892;DHT22;4482;54.332;10.118;2022-12-01T09:22:10;5.30;99.90
8892;DHT22;4482;54.332;10.118;2022-12-01T09:24:37;5.30;99.90
8892;DHT22;4482;54.332;10.118;2022-12-01T09:27:04;5.30;99.90
8892;DHT22;4482;54.332;10.118;2022-12-01T09:29:32;5.40;99.90
8892;DHT22;4482;54.332;10.118;2022-12-01T09:31:59;5.30;99.90
8892;DHT22;4482;54.332;10.118;2022-12-01T09:34:27;5.30;99.90
8892;DHT22;4482;54.332;10.118;2022-12-01T09:36:54;5.30;99.90
8892;DHT22;4482;54.332;10.118;2022-12-01T09:39:22;5.30;99.90
8892;DHT22;4482;54.332;10.118;2022-12-01T09:41:52;5.20;99.90
8892;DHT22;4482;54.332;10.118;2022-12-01T09:44:37;5.20;99.90
8892;DHT22;4482;54.332;10.118;2022-12-01T09:47:09;5.30;99.90
8892;DHT22;4482;54.332;10.118;2022-12-01T09:49:46;5.30;99.90
8892;DHT22;4482;54.332;10.118;2022-12-01T09:52:18;5.30;99.90
8892;DHT22;4482;54.332;10.118;2022-12-01T09:54:46;5.20;99.90
8892;DHT22;4482;54.332;10.118;2022-12-01T09:57:20;5.20;99.90
8892;DHT22;4482;54.332;10.118;2022-12-01T09:59:51;5.20;99.90
8892;DHT22;4482;54.332;10.118;2022-12-01T10:02:34;5.20;99.90
8892;DHT22;4482;54.332;10.118;2022-12-01T10:05:04;5.20;99.90
8892;DHT22;4482;54.332;10.118;2022-12-01T10:07:35;5.20;99.90
8892;DHT22;4482;54.332;10.118;2022-12-01T10:10:05;5.10;99.90
8892;DHT22;4482;54.332;10.118;2022-12-01T10:12:34;5.10;99.90
8892;DHT22;4482;54.332;10.118;2022-12-01T10:15:14;5.20;99.90
8892;DHT22;4482;54.332;10.118;2022-12-01T10:17:49;5.30;99.90
8892;DHT22;4482;54.332;10.118;2022-12-01T10:20:23;5.30;99.90
8892;DHT22;4482;54.332;10.118;2022-12-01T10:23:19;5.30;99.90
8892;DHT22;4482;54.332;10.118;2022-12-01T10:25:55;5.30;99.90
8892;DHT22;4482;54.332;10.118;2022-12-01T10:28:48;5.30;99.90
8892;DHT22;4482;54.332;10.118;2022-12-01T10:31:22;5.20;99.90
8892;DHT22;4482;54.332;10.118;2022-12-01T10:34:03;5.20;99.90
8892;DHT22;4482;54.332;10.118;2022-12-01T10:36:32;5.20;99.90
8892;DHT22;4482;54.332;10.118;2022-12-01T10:39:00;5.20;99.90
8892;DHT22;4482;54.332;10.118;2022-12-01T10:41:29;5.20;99.90
8892;DHT22;4482;54.332;10.118;2022-12-01T10:43:59;5.20;99.90
8892;DHT22;4482;54.332;10.118;2022-12-01T10:46:36;5.20;99.90
8892;DHT22;4482;54.332;10.118;2022-12-01T10:49:08;5.20;99.90
8892;DHT22;4482;54.332;10.118;2022-12-01T10:51:46;5.20;99.90
8892;DHT22;4482;54.332;10.118;2022-12-01T10:54:14;5.20;99.90
8892;DHT22;4482;54.332;10.118;2022-12-01T10:56:42;5.20;99.90
8892;DHT22;4482;54.332;10.118;2022-12-01T10:59:22;5.20;99.90
8892;DHT22;4482;54.332;10.118;2022-12-01T11:01:52;5.20;99.90
8892;DHT22;4482;54.332;10.118;2022-12-01T11:04:35;5.30;99.90
8892;DHT22;4482;54.332;10.118;2022-12-01T11:07:14;5.40;99.90
8892;DHT22;4482;54.332;10.118;2022-12-01T11:09:45;5.50;99.90
8892;DHT22;4482;54.332;10.118;2022-12-01T11:12:15;5.70;99.90
8892;DHT22;4482;54.332;10.118;2022-12-01T11:14:47;5.70;99.90
8892;DHT22;4482;54.332;10.118;2022-12-01T11:17:25;5.70;99.90
8892;DHT22;4482;54.332;10.118;2022-12-01T11:19:54;5.80;99.90
8892;DHT22;4482;54.332;10.118;2022-12-01T11:22:23;5.90;99.90
8892;DHT22;4482;54.332;10.118;2022-12-01T11:24:59;5.90;99.90
8892;DHT22;4482;54.332;10.118;2022-12-01T11:27:29;5.90;99.90
8892;DHT22;4482;54.332;10.118;2022-12-01T11:29:59;6.00;99.90
8892;DHT22;4482;54.332;10.118;2022-12-01T11:32:32;5.90;99.90
8892;DHT22;4482;54.332;10.118;2022-12-01T11:35:02;5.80;99.90
8892;DHT22;4482;54.332;10.118;2022-12-01T11:37:34;5.70;99.90
8892;DHT22;4482;54.332;10.118;2022-12-01T11:40:08;5.50;99.90
8892;DHT22;4482;54.332;10.118;2022-12-01T11:42:39;5.50;99.90
8892;DHT22;4482;54.332;10.118;2022-12-01T11:45:25;5.40;99.90
8892;DHT22;4482;54.332;10.118;2022-12-01T11:48:03;5.40;99.90
8892;DHT22;4482;54.332;10.118;2022-12-01T11:50:33;5.40;99.90
8892;DHT22;4482;54.332;10.118;2022-12-01T11:53:00;5.40;99.90
8892;DHT22;4482;54.332;10.118;2022-12-01T11:55:29;5.40;99.90
8892;DHT22;4482;54.332;10.118;2022-12-01T11:57:58;5.30;99.90
8892;DHT22;4482;54.332;10.118;2022-12-01T12:00:29;5.30;99.90
8892;DHT22;4482;54.332;10.118;2022-12-01T12:03:11;5.30;99.90
8892;DHT22;4482;54.332;10.118;2022-12-01T12:06:02;5.30;99.90
8892;DHT22;4482;54.332;10.118;2022-12-01T12:08:41;5.20;99.90
8892;DHT22;4482;54.332;10.118;2022-12-01T12:11:14;5.20;99.90
8892;DHT22;4482;54.332;10.118;2022-12-01T12:14:22;5.30;99.90
8892;DHT22;4482;54.332;10.118;2022-12-01T12:17:12;5.30;99.90
8892;DHT22;4482;54.332;10.118;2022-12-01T12:19:57;5.30;99.90
8892;DHT22;4482;54.332;10.118;2022-12-01T12:22:35;5.40;99.90
8892;DHT22;4482;54.332;10.118;2022-12-01T12:25:21;5.50;99.90
8892;DHT22;4482;54.332;10.118;2022-12-01T12:27:57;5.60;99.90
8892;DHT22;4482;54.332;10.118;2022-12-01T12:30:30;5.50;99.90
8892;DHT22;4482;54.332;10.118;2022-12-01T12:33:27;5.60;99.90
8892;DHT22;4482;54.332;10.118;2022-12-01T12:36:04;5.50;99.90
8892;DHT22;4482;54.332;10.118;2022-12-01T12:38:45;5.50;99.90
8892;DHT22;4482;54.332;10.118;2022-12-01T12:41:20;5.50;99.90
8892;DHT22;4482;54.332;10.118;2022-12-01T12:44:07;5.50;99.90
8892;DHT22;4482;54.332;10.118;2022-12-01T12:46:40;5.40;99.90
8892;DHT22;4482;54.332;10.118;2022-12-01T12:49:26;5.40;99.90
8892;DHT22;4482;54.332;10.118;2022-12-01T12:52:00;5.30;99.90
8892;DHT22;4482;54.332;10.118;2022-12-01T12:54:31;5.20;99.90
8892;DHT22;4482;54.332;10.118;2022-12-01T12:57:03;5.20;99.90
8892;DHT22;4482;54.332;10.118;2022-12-01T12:59:37;5.20;99.90
8892;DHT22;4482;54.332;10.118;2022-12-01T13:02:11;5.10;99.90
8892;DHT22;4482;54.332;10.118;2022-12-01T13:04:44;5.00;99.90
8892;DHT22;4482;54.332;10.118;2022-12-01T13:07:25;5.00;99.90
8892;DHT22;4482;54.332;10.118;2022-12-01T13:09:57;4.90;99.90
8892;DHT22;4482;54.332;10.118;2022-12-01T13:12:29;4.90;99.90
8892;DHT22;4482;54.332;10.118;2022-12-01T13:15:00;4.90;99.90
8892;DHT22;4482;54.332;10.118;2022-12-01T13:17:33;4.90;99.90
8892;DHT22;4482;54.332;10.118;2022-12-01T13:20:01;4.90;99.90
8892;DHT22;4482;54.332;10.118;2022-12-01T13:22:33;4.90;99.90
8892;DHT22;4482;54.332;10.118;2022-12-01T13:25:01;4.90;99.90
8892;DHT22;4482;54.332;10.118;2022-12-01T13:27:30;4.90;99.90
8892;DHT22;4482;54.332;10.118;2022-12-01T13:29:58;4.90;99.90
8892;DHT22;4482;54.332;10.118;2022-12-01T13:32:30;4.90;99.90
8892;DHT22;4482;54.332;10.118;2022-12-01T13:34:59;4.90;99.90
8892;DHT22;4482;54.332;10.118;2022-12-01T13:37:28;4.90;99.90
8892;DHT22;4482;54.332;10.118;2022-12-01T13:40:07;4.90;99.90
8892;DHT22;4482;54.332;10.118;2022-12-01T13:42:34;4.90;99.90
8892;DHT22;4482;54.332;10.118;2022-12-01T13:45:07;5.00;99.90
8892;DHT22;4482;54.332;10.118;2022-12-01T13:47:48;4.90;99.90
8892;DHT22;4482;54.332;10.118;2022-12-01T13:53:31;5.00;99.90
8892;DHT22;4482;54.332;10.118;2022-12-01T13:56:20;4.90;99.90
8892;DHT22;4482;54.332;10.118;2022-12-01T13:58:50;4.90;99.90
8892;DHT22;4482;54.332;10.118;2022-12-01T14:01:47;4.90;99.90
8892;DHT22;4482;54.332;10.118;2022-12-01T14:04:28;5.00;99.90
8892;DHT22;4482;54.332;10.118;2022-12-01T14:07:22;5.00;99.90
8892;DHT22;4482;54.332;10.118;2022-12-01T14:09:52;5.00;99.90
8892;DHT22;4482;54.332;10.118;2022-12-01T14:12:24;4.90;99.90
8892;DHT22;4482;54.332;10.118;2022-12-01T14:14:57;4.90;99.90
8892;DHT22;4482;54.332;10.118;2022-12-01T14:17:27;4.80;99.90
8892;DHT22;4482;54.332;10.118;2022-12-01T14:20:03;4.80;99.90
8892;DHT22;4482;54.332;10.118;2022-12-01T14:22:36;4.80;99.90
8892;DHT22;4482;54.332;10.118;2022-12-01T14:25:05;4.80;99.90
8892;DHT22;4482;54.332;10.118;2022-12-01T14:27:48;4.70;99.90
8892;DHT22;4482;54.332;10.118;2022-12-01T14:33:44;4.70;99.90
8892;DHT22;4482;54.332;10.118;2022-12-01T14:36:20;4.60;99.90
8892;DHT22;4482;54.332;10.118;2022-12-01T14:38:47;4.70;99.90
8892;DHT22;4482;54.332;10.118;2022-12-01T14:41:26;4.60;99.90
8892;DHT22;4482;54.332;10.118;2022-12-01T14:43:56;4.60;99.90
8892;DHT22;4482;54.332;10.118;2022-12-01T14:46:34;4.50;99.90
8892;DHT22;4482;54.332;10.118;2022-12-01T14:49:05;4.60;99.90
8892;DHT22;4482;54.332;10.118;2022-12-01T14:51:35;4.50;99.90
8892;DHT22;4482;54.332;10.118;2022-12-01T14:54:08;4.50;99.90
8892;DHT22;4482;54.332;10.118;2022-12-01T14:56:39;4.40;99.90
8892;DHT22;4482;54.332;10.118;2022-12-01T14:59:18;4.40;99.90
8892;DHT22;4482;54.332;10.118;2022-12-01T15:01:48;4.50;99.90
8892;DHT22;4482;54.332;10.118;2022-12-01T15:04:16;4.50;99.90
8892;DHT22;4482;54.332;10.118;2022-12-01T15:06:43;4.40;99.90
8892;DHT22;4482;54.332;10.118;2022-12-01T15:09:12;4.40;99.90
8892;DHT22;4482;54.332;10.118;2022-12-01T15:11:49;4.30;99.90
8892;DHT22;4482;54.332;10.118;2022-12-01T15:14:23;4.30;99.90
8892;DHT22;4482;54.332;10.118;2022-12-01T15:16:50;4.30;99.90
8892;DHT22;4482;54.332;10.118;2022-12-01T15:19:22;4.20;99.90
8892;DHT22;4482;54.332;10.118;2022-12-01T15:21:49;4.20;99.90
8892;DHT22;4482;54.332;10.118;2022-12-01T15:24:21;4.30;99.90
8892;DHT22;4482;54.332;10.118;2022-12-01T15:26:51;4.20;99.90
8892;DHT22;4482;54.332;10.118;2022-12-01T15:29:23;4.30;99.90
8892;DHT22;4482;54.332;10.118;2022-12-01T15:31:52;4.20;99.90
8892;DHT22;4482;54.332;10.118;2022-12-01T15:34:22;4.20;99.90
8892;DHT22;4482;54.332;10.118;2022-12-01T15:36:51;4.20;99.90
8892;DHT22;4482;54.332;10.118;2022-12-01T15:39:34;4.20;99.90
8892;DHT22;4482;54.332;10.118;2022-12-01T15:42:02;4.20;99.90
8892;DHT22;4482;54.332;10.118;2022-12-01T15:44:34;4.20;99.90
8892;DHT22;4482;54.332;10.118;2022-12-01T15:47:32;4.20;99.90
8892;DHT22;4482;54.332;10.118;2022-12-01T15:50:00;4.20;99.90
8892;DHT22;4482;54.332;10.118;2022-12-01T15:52:28;4.20;99.90
8892;DHT22;4482;54.332;10.118;2022-12-01T15:55:00;4.20;99.90
8892;DHT22;4482;54.332;10.118;2022-12-01T15:57:28;4.20;99.90
8892;DHT22;4482;54.332;10.118;2022-12-01T15:59:56;4.20;99.90
8892;DHT22;4482;54.332;10.118;2022-12-01T16:02:26;4.30;99.90
8892;DHT22;4482;54.332;10.118;2022-12-01T16:05:02;4.30;99.90
8892;DHT22;4482;54.332;10.118;2022-12-01T16:07:31;4.20;99.90
8892;DHT22;4482;54.332;10.118;2022-12-01T16:09:59;4.20;99.90
8892;DHT22;4482;54.332;10.118;2022-12-01T16:12:27;4.20;99.90
8892;DHT22;4482;54.332;10.118;2022-12-01T16:15:11;4.20;99.90
8892;DHT22;4482;54.332;10.118;2022-12-01T16:17:43;4.10;99.90
8892;DHT22;4482;54.332;10.118;2022-12-01T16:20:20;4.10;99.90
8892;DHT22;4482;54.332;10.118;2022-12-01T16:22:49;4.10;99.90
8892;DHT22;4482;54.332;10.118;2022-12-01T16:25:22;4.10;99.90
8892;DHT22;4482;54.332;10.118;2022-12-01T16:27:53;4.10;99.90
8892;DHT22;4482;54.332;10.118;2022-12-01T16:30:25;4.20;99.90
8892;DHT22;4482;54.332;10.118;2022-12-01T16:33:00;4.20;99.90
8892;DHT22;4482;54.332;10.118;2022-12-01T16:35:29;4.20;99.90
8892;DHT22;4482;54.332;10.118;2022-12-01T16:37:56;4.10;99.90